sensor_id;sensor_type;location;lat;lon;timestamp;P1;durP1;ratioP1;P2;durP2;ratioP2
20896;SDS011;10608;42.600;23.398;2022-12-07T00:01:43;24.47;;;23.47;;
20896;SDS011;10608;42.600;23.398;2022-12-07T00:04:11;22.83;;;21.93;;
20896;SDS011;10608;42.600;23.398;2022-12-07T00:06:38;21.37;;;20.53;;
20896;SDS011;10608;42.600;23.398;2022-12-07T00:09:07;27.00;;;25.90;;
20896;SDS011;10608;42.600;23.398;2022-12-07T00:11:34;27.30;;;26.20;;
20896;SDS011;10608;42.600;23.398;2022-12-07T00:14:02;29.60;;;28.40;;
20896;SDS011;10608;42.600;23.398;2022-12-07T00:16:35;28.53;;;27.40;;
20896;SDS011;10608;42.600;23.398;2022-12-07T00:19:01;35.60;;;34.10;;
20896;SDS011;10608;42.600;23.398;2022-12-07T00:21:29;30.53;;;29.23;;
20896;SDS011;10608;42.600;23.398;2022-12-07T00:23:59;33.97;;;32.57;;
20896;SDS011;10608;42.600;23.398;2022-12-07T00:26:26;31.37;;;30.03;;
20896;SDS011;10608;42.600;23.398;2022-12-07T00:28:55;28.37;;;27.27;;
20896;SDS011;10608;42.600;23.398;2022-12-07T00:31:23;28.37;;;27.23;;
20896;SDS011;10608;42.600;23.398;2022-12-07T00:33:50;24.27;;;23.27;;
20896;SDS011;10608;42.600;23.398;2022-12-07T00:36:17;24.90;;;23.90;;
20896;SDS011;10608;42.600;23.398;2022-12-07T00:38:44;26.67;;;25.57;;
20896;SDS011;10608;42.600;23.398;2022-12-07T00:41:11;30.73;;;29.53;;
20896;SDS011;10608;42.600;23.398;2022-12-07T00:43:36;27.97;;;26.87;;
20896;SDS011;10608;42.600;23.398;2022-12-07T00:46:02;24.97;;;23.97;;
20896;SDS011;10608;42.600;23.398;2022-12-07T00:48:27;21.73;;;20.83;;
20896;SDS011;10608;42.600;23.398;2022-12-07T00:50:53;21.67;;;20.77;;
20896;SDS011;10608;42.600;23.398;2022-12-07T00:53:19;27.80;;;26.70;;
20896;SDS011;10608;42.600;23.398;2022-12-07T00:55:45;30.40;;;29.20;;
20896;SDS011;10608;42.600;23.398;2022-12-07T00:58:11;23.53;;;22.63;;
20896;SDS011;10608;42.600;23.398;2022-12-07T01:00:37;28.03;;;26.80;;
20896;SDS011;10608;42.600;23.398;2022-12-07T01:03:04;32.17;;;30.87;;
20896;SDS011;10608;42.600;23.398;2022-12-07T01:05:31;31.27;;;30.00;;
20896;SDS011;10608;42.600;23.398;2022-12-07T01:07:56;29.00;;;27.80;;
20896;SDS011;10608;42.600;23.398;2022-12-07T01:10:22;31.00;;;29.73;;
20896;SDS011;10608;42.600;23.398;2022-12-07T01:12:47;27.40;;;26.30;;
20896;SDS011;10608;42.600;23.398;2022-12-07T01:15:13;24.13;;;23.13;;
20896;SDS011;10608;42.600;23.398;2022-12-07T01:17:38;23.40;;;22.50;;
20896;SDS011;10608;42.600;23.398;2022-12-07T01:20:04;28.87;;;27.67;;
20896;SDS011;10608;42.600;23.398;2022-12-07T01:22:30;36.20;;;34.77;;
20896;SDS011;10608;42.600;23.398;2022-12-07T01:24:55;36.53;;;35.03;;
20896;SDS011;10608;42.600;23.398;2022-12-07T01:27:21;30.70;;;29.47;;
20896;SDS011;10608;42.600;23.398;2022-12-07T01:29:46;28.67;;;27.37;;
20896;SDS011;10608;42.600;23.398;2022-12-07T01:32:12;28.00;;;26.90;;
20896;SDS011;10608;42.600;23.398;2022-12-07T01:34:37;32.80;;;31.50;;
20896;SDS011;10608;42.600;23.398;2022-12-07T01:37:03;34.03;;;32.63;;
20896;SDS011;10608;42.600;23.398;2022-12-07T01:39:29;31.63;;;30.07;;
20896;SDS011;10608;42.600;23.398;2022-12-07T01:41:54;24.37;;;23.37;;
20896;SDS011;10608;42.600;23.398;2022-12-07T01:44:26;22.60;;;21.70;;
20896;SDS011;10608;42.600;23.398;2022-12-07T01:47:02;19.57;;;18.77;;
20896;SDS011;10608;42.600;23.398;2022-12-07T01:54:40;23.77;;;22.80;;
20896;SDS011;10608;42.600;23.398;2022-12-07T01:57:07;23.83;;;22.90;;
20896;SDS011;10608;42.600;23.398;2022-12-07T01:59:34;25.70;;;24.67;;
20896;SDS011;10608;42.600;23.398;2022-12-07T02:02:00;28.37;;;27.23;;
20896;SDS011;10608;42.600;23.398;2022-12-07T02:04:29;28.23;;;27.13;;
20896;SDS011;10608;42.600;23.398;2022-12-07T02:06:55;32.57;;;31.23;;
20896;SDS011;10608;42.600;23.398;2022-12-07T02:09:23;35.83;;;34.37;;
20896;SDS011;10608;42.600;23.398;2022-12-07T02:11:48;38.70;;;37.10;;
20896;SDS011;10608;42.600;23.398;2022-12-07T02:14:14;37.27;;;35.70;;
20896;SDS011;10608;42.600;23.398;2022-12-07T02:16:57;32.70;;;31.37;;
20896;SDS011;10608;42.600;23.398;2022-12-07T02:19:45;27.10;;;26.03;;
20896;SDS011;10608;42.600;23.398;2022-12-07T02:23:00;27.30;;;26.20;;
20896;SDS011;10608;42.600;23.398;2022-12-07T02:28:26;29.50;;;28.30;;
20896;SDS011;10608;42.600;23.398;2022-12-07T02:30:54;29.27;;;28.10;;
20896;SDS011;10608;42.600;23.398;2022-12-07T02:33:37;36.17;;;34.67;;
20896;SDS011;10608;42.600;23.398;2022-12-07T02:41:15;36.80;;;35.30;;
20896;SDS011;10608;42.600;23.398;2022-12-07T02:43:47;36.03;;;34.53;;
20896;SDS011;10608;42.600;23.398;2022-12-07T02:46:20;35.93;;;34.37;;
20896;SDS011;10608;42.600;23.398;2022-12-07T02:48:49;35.90;;;34.43;;
20896;SDS011;10608;42.600;23.398;2022-12-07T02:51:17;36.77;;;35.27;;
20896;SDS011;10608;42.600;23.398;2022-12-07T02:53:43;33.43;;;32.07;;
20896;SDS011;10608;42.600;23.398;2022-12-07T03:03:58;31.50;;;30.23;;
20896;SDS011;10608;42.600;23.398;2022-12-07T03:06:42;28.90;;;27.73;;
20896;SDS011;10608;42.600;23.398;2022-12-07T03:09:27;29.57;;;28.37;;
20896;SDS011;10608;42.600;23.398;2022-12-07T03:12:10;27.33;;;26.23;;
20896;SDS011;10608;42.600;23.398;2022-12-07T03:14:44;27.17;;;26.07;;
20896;SDS011;10608;42.600;23.398;2022-12-07T03:17:19;28.37;;;27.27;;
20896;SDS011;10608;42.600;23.398;2022-12-07T03:19:51;27.63;;;26.53;;
20896;SDS011;10608;42.600;23.398;2022-12-07T03:22:21;32.13;;;30.83;;
20896;SDS011;10608;42.600;23.398;2022-12-07T03:24:50;32.00;;;30.67;;
20896;SDS011;10608;42.600;23.398;2022-12-07T03:27:21;26.87;;;25.67;;
20896;SDS011;10608;42.600;23.398;2022-12-07T03:30:06;27.33;;;26.23;;
20896;SDS011;10608;42.600;23.398;2022-12-07T03:32:43;43.43;;;41.63;;
20896;SDS011;10608;42.600;23.398;2022-12-07T03:35:12;48.63;;;46.63;;
20896;SDS011;10608;42.600;23.398;2022-12-07T03:37:46;42.47;;;40.73;;
20896;SDS011;10608;42.600;23.398;2022-12-07T03:40:23;19.13;;;18.40;;
20896;SDS011;10608;42.600;23.398;2022-12-07T03:42:53;20.93;;;20.13;;
20896;SDS011;10608;42.600;23.398;2022-12-07T03:45:21;22.50;;;21.60;;
20896;SDS011;10608;42.600;23.398;2022-12-07T03:48:00;20.43;;;19.63;;
20896;SDS011;10608;42.600;23.398;2022-12-07T03:50:31;23.13;;;22.23;;
20896;SDS011;10608;42.600;23.398;2022-12-07T03:53:17;19.73;;;18.93;;
20896;SDS011;10608;42.600;23.398;2022-12-07T03:55:47;22.37;;;21.47;;
20896;SDS011;10608;42.600;23.398;2022-12-07T03:58:15;25.77;;;24.77;;
20896;SDS011;10608;42.600;23.398;2022-12-07T04:00:43;21.13;;;20.33;;
20896;SDS011;10608;42.600;23.398;2022-12-07T04:03:09;29.90;;;28.70;;
20896;SDS011;10608;42.600;23.398;2022-12-07T04:05:35;23.40;;;22.40;;
20896;SDS011;10608;42.600;23.398;2022-12-07T04:08:01;27.77;;;26.67;;
20896;SDS011;10608;42.600;23.398;2022-12-07T04:10:27;22.27;;;21.37;;
20896;SDS011;10608;42.600;23.398;2022-12-07T04:12:52;24.07;;;23.13;;
20896;SDS011;10608;42.600;23.398;2022-12-07T04:15:18;28.73;;;27.57;;
20896;SDS011;10608;42.600;23.398;2022-12-07T04:17:43;24.70;;;23.70;;
20896;SDS011;10608;42.600;23.398;2022-12-07T04:20:09;28.67;;;27.53;;
20896;SDS011;10608;42.600;23.398;2022-12-07T04:22:35;29.80;;;28.60;;
20896;SDS011;10608;42.600;23.398;2022-12-07T04:25:00;26.97;;;25.87;;
20896;SDS011;10608;42.600;23.398;2022-12-07T04:27:26;25.87;;;24.87;;
20896;SDS011;10608;42.600;23.398;2022-12-07T04:29:51;23.03;;;22.13;;
20896;SDS011;10608;42.600;23.398;2022-12-07T04:32:17;31.20;;;29.70;;
20896;SDS011;10608;42.600;23.398;2022-12-07T04:34:42;27.23;;;26.13;;
20896;SDS011;10608;42.600;23.398;2022-12-07T04:37:07;32.83;;;31.53;;
20896;SDS011;10608;42.600;23.398;2022-12-07T04:39:33;33.07;;;31.73;;
20896;SDS011;10608;42.600;23.398;2022-12-07T04:41:59;29.37;;;28.17;;
20896;SDS011;10608;42.600;23.398;2022-12-07T04:44:26;19.83;;;19.03;;
20896;SDS011;10608;42.600;23.398;2022-12-07T04:46:53;19.43;;;18.63;;
20896;SDS011;10608;42.600;23.398;2022-12-07T04:49:19;22.20;;;21.30;;
20896;SDS011;10608;42.600;23.398;2022-12-07T04:51:45;23.43;;;22.53;;
20896;SDS011;10608;42.600;23.398;2022-12-07T04:54:12;21.13;;;20.30;;
20896;SDS011;10608;42.600;23.398;2022-12-07T04:56:39;20.87;;;20.07;;
20896;SDS011;10608;42.600;23.398;2022-12-07T04:59:05;18.80;;;18.10;;
20896;SDS011;10608;42.600;23.398;2022-12-07T05:01:32;21.93;;;21.03;;
20896;SDS011;10608;42.600;23.398;2022-12-07T05:03:58;23.83;;;22.90;;
20896;SDS011;10608;42.600;23.398;2022-12-07T05:06:24;27.33;;;26.23;;
20896;SDS011;10608;42.600;23.398;2022-12-07T05:08:50;28.17;;;27.07;;
20896;SDS011;10608;42.600;23.398;2022-12-07T05:11:15;25.97;;;24.93;;
20896;SDS011;10608;42.600;23.398;2022-12-07T05:13:59;26.67;;;25.57;;
20896;SDS011;10608;42.600;23.398;2022-12-07T05:16:25;28.97;;;27.77;;
20896;SDS011;10608;42.600;23.398;2022-12-07T05:18:51;25.63;;;24.60;;
20896;SDS011;10608;42.600;23.398;2022-12-07T05:21:17;29.97;;;28.77;;
20896;SDS011;10608;42.600;23.398;2022-12-07T05:23:42;29.90;;;28.70;;
20896;SDS011;10608;42.600;23.398;2022-12-07T05:26:08;21.37;;;20.50;;
20896;SDS011;10608;42.600;23.398;2022-12-07T05:28:33;21.63;;;20.77;;
20896;SDS011;10608;42.600;23.398;2022-12-07T05:30:59;26.90;;;25.80;;
20896;SDS011;10608;42.600;23.398;2022-12-07T05:33:24;27.20;;;26.10;;
20896;SDS011;10608;42.600;23.398;2022-12-07T05:35:50;25.70;;;24.70;;
20896;SDS011;10608;42.600;23.398;2022-12-07T05:38:15;23.23;;;22.33;;
20896;SDS011;10608;42.600;23.398;2022-12-07T05:40:40;20.57;;;19.77;;
20896;SDS011;10608;42.600;23.398;2022-12-07T05:43:06;21.23;;;20.40;;
20896;SDS011;10608;42.600;23.398;2022-12-07T05:45:32;22.70;;;21.80;;
20896;SDS011;10608;42.600;23.398;2022-12-07T05:47:57;25.40;;;24.40;;
20896;SDS011;10608;42.600;23.398;2022-12-07T05:50:23;24.87;;;23.87;;
20896;SDS011;10608;42.600;23.398;2022-12-07T05:52:48;23.60;;;22.63;;
20896;SDS011;10608;42.600;23.398;2022-12-07T05:55:14;26.50;;;25.40;;
20896;SDS011;10608;42.600;23.398;2022-12-07T05:57:39;33.10;;;31.77;;
20896;SDS011;10608;42.600;23.398;2022-12-07T06:00:25;32.03;;;30.73;;
20896;SDS011;10608;42.600;23.398;2022-12-07T06:02:50;28.67;;;27.47;;
20896;SDS011;10608;42.600;23.398;2022-12-07T06:05:15;28.43;;;27.33;;
20896;SDS011;10608;42.600;23.398;2022-12-07T06:07:41;30.37;;;29.17;;
20896;SDS011;10608;42.600;23.398;2022-12-07T06:10:06;25.77;;;24.77;;
20896;SDS011;10608;42.600;23.398;2022-12-07T06:12:32;26.97;;;25.87;;
20896;SDS011;10608;42.600;23.398;2022-12-07T06:15:00;26.03;;;25.03;;
20896;SDS011;10608;42.600;23.398;2022-12-07T06:17:26;31.40;;;30.13;;
20896;SDS011;10608;42.600;23.398;2022-12-07T06:19:51;37.07;;;35.57;;
20896;SDS011;10608;42.600;23.398;2022-12-07T06:22:17;42.20;;;40.47;;
20896;SDS011;10608;42.600;23.398;2022-12-07T06:24:43;29.53;;;28.33;;
20896;SDS011;10608;42.600;23.398;2022-12-07T06:27:09;32.33;;;31.03;;
20896;SDS011;10608;42.600;23.398;2022-12-07T06:29:35;33.87;;;32.47;;
20896;SDS011;10608;42.600;23.398;2022-12-07T06:32:01;32.70;;;31.40;;
20896;SDS011;10608;42.600;23.398;2022-12-07T06:34:27;31.27;;;29.97;;
20896;SDS011;10608;42.600;23.398;2022-12-07T06:36:53;26.90;;;25.80;;
20896;SDS011;10608;42.600;23.398;2022-12-07T06:39:23;43.17;;;41.23;;
20896;SDS011;10608;42.600;23.398;2022-12-07T06:41:50;52.40;;;50.23;;
20896;SDS011;10608;42.600;23.398;2022-12-07T06:44:19;48.27;;;46.27;;
20896;SDS011;10608;42.600;23.398;2022-12-07T06:46:46;64.03;;;61.37;;
20896;SDS011;10608;42.600;23.398;2022-12-07T06:49:12;94.83;;;90.90;;
20896;SDS011;10608;42.600;23.398;2022-12-07T06:51:37;71.97;;;68.97;;
20896;SDS011;10608;42.600;23.398;2022-12-07T06:54:06;42.67;;;40.90;;
20896;SDS011;10608;42.600;23.398;2022-12-07T06:56:33;28.40;;;27.23;;
20896;SDS011;10608;42.600;23.398;2022-12-07T06:58:59;39.83;;;38.23;;
20896;SDS011;10608;42.600;23.398;2022-12-07T07:01:24;35.50;;;34.00;;
20896;SDS011;10608;42.600;23.398;2022-12-07T07:03:49;40.73;;;38.93;;
20896;SDS011;10608;42.600;23.398;2022-12-07T07:06:15;55.33;;;53.00;;
20896;SDS011;10608;42.600;23.398;2022-12-07T07:08:40;65.77;;;62.97;;
20896;SDS011;10608;42.600;23.398;2022-12-07T07:11:07;73.27;;;70.17;;
20896;SDS011;10608;42.600;23.398;2022-12-07T07:13:33;51.33;;;49.20;;
20896;SDS011;10608;42.600;23.398;2022-12-07T07:15:58;36.53;;;35.03;;
20896;SDS011;10608;42.600;23.398;2022-12-07T07:18:25;29.97;;;28.73;;
20896;SDS011;10608;42.600;23.398;2022-12-07T07:20:51;37.67;;;36.10;;
20896;SDS011;10608;42.600;23.398;2022-12-07T07:23:17;61.43;;;58.77;;
20896;SDS011;10608;42.600;23.398;2022-12-07T07:25:42;70.67;;;67.70;;
20896;SDS011;10608;42.600;23.398;2022-12-07T07:28:08;76.13;;;73.00;;
20896;SDS011;10608;42.600;23.398;2022-12-07T07:30:34;82.90;;;79.40;;
20896;SDS011;10608;42.600;23.398;2022-12-07T07:33:00;46.47;;;44.53;;
20896;SDS011;10608;42.600;23.398;2022-12-07T07:35:27;83.07;;;79.43;;
20896;SDS011;10608;42.600;23.398;2022-12-07T07:37:54;40.20;;;38.50;;
20896;SDS011;10608;42.600;23.398;2022-12-07T07:40:19;27.10;;;25.80;;
20896;SDS011;10608;42.600;23.398;2022-12-07T07:42:48;33.13;;;31.73;;
20896;SDS011;10608;42.600;23.398;2022-12-07T07:45:14;41.50;;;39.73;;
20896;SDS011;10608;42.600;23.398;2022-12-07T07:47:40;48.40;;;46.33;;
20896;SDS011;10608;42.600;23.398;2022-12-07T07:50:05;35.37;;;33.93;;
20896;SDS011;10608;42.600;23.398;2022-12-07T07:52:31;34.17;;;32.77;;
20896;SDS011;10608;42.600;23.398;2022-12-07T07:54:57;64.77;;;62.03;;
20896;SDS011;10608;42.600;23.398;2022-12-07T07:57:22;47.50;;;45.47;;
20896;SDS011;10608;42.600;23.398;2022-12-07T07:59:48;27.33;;;26.20;;
20896;SDS011;10608;42.600;23.398;2022-12-07T08:02:14;21.60;;;20.70;;
20896;SDS011;10608;42.600;23.398;2022-12-07T08:04:42;35.87;;;34.27;;
20896;SDS011;10608;42.600;23.398;2022-12-07T08:07:07;20.10;;;19.27;;
20896;SDS011;10608;42.600;23.398;2022-12-07T08:09:33;21.07;;;20.13;;
20896;SDS011;10608;42.600;23.398;2022-12-07T08:11:59;29.10;;;27.90;;
20896;SDS011;10608;42.600;23.398;2022-12-07T08:14:24;18.97;;;18.20;;
20896;SDS011;10608;42.600;23.398;2022-12-07T08:16:50;22.33;;;21.43;;
20896;SDS011;10608;42.600;23.398;2022-12-07T08:19:16;25.33;;;24.30;;
20896;SDS011;10608;42.600;23.398;2022-12-07T08:21:41;28.10;;;26.97;;
20896;SDS011;10608;42.600;23.398;2022-12-07T08:24:07;33.87;;;32.47;;
20896;SDS011;10608;42.600;23.398;2022-12-07T08:26:32;47.33;;;45.27;;
20896;SDS011;10608;42.600;23.398;2022-12-07T08:28:58;44.60;;;42.73;;
20896;SDS011;10608;42.600;23.398;2022-12-07T08:31:24;28.13;;;27.00;;
20896;SDS011;10608;42.600;23.398;2022-12-07T08:33:49;49.70;;;47.60;;
20896;SDS011;10608;42.600;23.398;2022-12-07T08:36:15;42.63;;;40.93;;
20896;SDS011;10608;42.600;23.398;2022-12-07T08:38:41;22.57;;;21.60;;
20896;SDS011;10608;42.600;23.398;2022-12-07T08:41:07;16.53;;;15.87;;
20896;SDS011;10608;42.600;23.398;2022-12-07T08:43:33;19.50;;;18.70;;
20896;SDS011;10608;42.600;23.398;2022-12-07T08:46:18;16.40;;;15.70;;
20896;SDS011;10608;42.600;23.398;2022-12-07T08:48:54;13.67;;;13.07;;
20896;SDS011;10608;42.600;23.398;2022-12-07T08:51:23;15.07;;;14.47;;
20896;SDS011;10608;42.600;23.398;2022-12-07T08:53:50;15.03;;;14.43;;
20896;SDS011;10608;42.600;23.398;2022-12-07T08:56:17;13.43;;;12.90;;
20896;SDS011;10608;42.600;23.398;2022-12-07T08:58:44;20.00;;;19.10;;
20896;SDS011;10608;42.600;23.398;2022-12-07T09:01:10;17.20;;;16.40;;
20896;SDS011;10608;42.600;23.398;2022-12-07T09:03:35;19.97;;;19.17;;
20896;SDS011;10608;42.600;23.398;2022-12-07T09:06:01;18.83;;;18.07;;
20896;SDS011;10608;42.600;23.398;2022-12-07T09:08:28;34.07;;;32.67;;
20896;SDS011;10608;42.600;23.398;2022-12-07T09:10:58;23.60;;;22.60;;
20896;SDS011;10608;42.600;23.398;2022-12-07T09:13:23;25.57;;;24.30;;
20896;SDS011;10608;42.600;23.398;2022-12-07T09:15:49;24.73;;;23.73;;
20896;SDS011;10608;42.600;23.398;2022-12-07T09:18:14;17.40;;;16.70;;
20896;SDS011;10608;42.600;23.398;2022-12-07T09:20:39;16.63;;;15.93;;
20896;SDS011;10608;42.600;23.398;2022-12-07T09:23:05;15.47;;;14.87;;
20896;SDS011;10608;42.600;23.398;2022-12-07T09:25:32;17.03;;;16.23;;
20896;SDS011;10608;42.600;23.398;2022-12-07T09:27:59;23.13;;;22.17;;
20896;SDS011;10608;42.600;23.398;2022-12-07T09:30:25;24.60;;;23.53;;
20896;SDS011;10608;42.600;23.398;2022-12-07T09:32:54;18.73;;;17.93;;
20896;SDS011;10608;42.600;23.398;2022-12-07T09:35:21;22.40;;;21.50;;
20896;SDS011;10608;42.600;23.398;2022-12-07T09:37:48;22.13;;;21.13;;
20896;SDS011;10608;42.600;23.398;2022-12-07T09:40:13;17.10;;;16.40;;
20896;SDS011;10608;42.600;23.398;2022-12-07T09:42:44;15.13;;;14.53;;
20896;SDS011;10608;42.600;23.398;2022-12-07T09:45:23;15.57;;;14.90;;
20896;SDS011;10608;42.600;23.398;2022-12-07T09:47:52;17.00;;;16.30;;
20896;SDS011;10608;42.600;23.398;2022-12-07T09:50:21;16.30;;;15.63;;
20896;SDS011;10608;42.600;23.398;2022-12-07T09:52:50;16.87;;;16.17;;
20896;SDS011;10608;42.600;23.398;2022-12-07T09:55:21;16.53;;;15.83;;
20896;SDS011;10608;42.600;23.398;2022-12-07T09:57:49;13.13;;;12.53;;
20896;SDS011;10608;42.600;23.398;2022-12-07T10:00:17;14.23;;;13.53;;
20896;SDS011;10608;42.600;23.398;2022-12-07T10:02:47;20.97;;;20.07;;
20896;SDS011;10608;42.600;23.398;2022-12-07T10:05:19;13.03;;;12.43;;
20896;SDS011;10608;42.600;23.398;2022-12-07T10:07:49;15.63;;;15.03;;
20896;SDS011;10608;42.600;23.398;2022-12-07T10:10:17;23.83;;;22.87;;
20896;SDS011;10608;42.600;23.398;2022-12-07T10:12:54;14.13;;;13.53;;
20896;SDS011;10608;42.600;23.398;2022-12-07T10:15:19;24.13;;;23.13;;
20896;SDS011;10608;42.600;23.398;2022-12-07T10:17:50;18.73;;;17.93;;
20896;SDS011;10608;42.600;23.398;2022-12-07T10:23:07;15.43;;;14.83;;
20896;SDS011;10608;42.600;23.398;2022-12-07T10:25:39;16.73;;;16.03;;
20896;SDS011;10608;42.600;23.398;2022-12-07T10:33:31;14.80;;;14.20;;
20896;SDS011;10608;42.600;23.398;2022-12-07T10:36:14;18.47;;;17.77;;
20896;SDS011;10608;42.600;23.398;2022-12-07T10:38:44;18.10;;;17.40;;
20896;SDS011;10608;42.600;23.398;2022-12-07T10:41:11;15.27;;;14.63;;
20896;SDS011;10608;42.600;23.398;2022-12-07T10:43:37;15.97;;;15.30;;
20896;SDS011;10608;42.600;23.398;2022-12-07T10:49:27;14.53;;;13.93;;
20896;SDS011;10608;42.600;23.398;2022-12-07T10:52:05;16.00;;;15.20;;
20896;SDS011;10608;42.600;23.398;2022-12-07T10:57:47;16.43;;;15.80;;
20896;SDS011;10608;42.600;23.398;2022-12-07T11:00:21;18.77;;;17.97;;
20896;SDS011;10608;42.600;23.398;2022-12-07T11:08:56;23.80;;;22.83;;
20896;SDS011;10608;42.600;23.398;2022-12-07T11:34:00;16.73;;;16.03;;
20896;SDS011;10608;42.600;23.398;2022-12-07T11:42:24;15.50;;;14.90;;
20896;SDS011;10608;42.600;23.398;2022-12-07T11:44:57;18.83;;;17.93;;
20896;SDS011;10608;42.600;23.398;2022-12-07T11:52:27;15.97;;;15.17;;
20896;SDS011;10608;42.600;23.398;2022-12-07T11:55:12;20.57;;;19.60;;
20896;SDS011;10608;42.600;23.398;2022-12-07T11:57:54;13.17;;;12.67;;
20896;SDS011;10608;42.600;23.398;2022-12-07T12:00:28;19.30;;;18.47;;
20896;SDS011;10608;42.600;23.398;2022-12-07T12:02:57;19.27;;;18.47;;
20896;SDS011;10608;42.600;23.398;2022-12-07T12:05:29;22.03;;;21.13;;
20896;SDS011;10608;42.600;23.398;2022-12-07T12:08:15;20.67;;;19.83;;
20896;SDS011;10608;42.600;23.398;2022-12-07T12:11:07;17.43;;;16.73;;
20896;SDS011;10608;42.600;23.398;2022-12-07T12:21:56;21.37;;;20.50;;
20896;SDS011;10608;42.600;23.398;2022-12-07T12:24:26;20.17;;;19.37;;
20896;SDS011;10608;42.600;23.398;2022-12-07T12:27:01;16.37;;;15.67;;
20896;SDS011;10608;42.600;23.398;2022-12-07T12:29:35;21.23;;;20.23;;
20896;SDS011;10608;42.600;23.398;2022-12-07T12:32:05;19.27;;;18.47;;
20896;SDS011;10608;42.600;23.398;2022-12-07T12:34:40;20.80;;;19.90;;
20896;SDS011;10608;42.600;23.398;2022-12-07T12:42:48;17.63;;;16.90;;
20896;SDS011;10608;42.600;23.398;2022-12-07T12:45:22;15.77;;;15.17;;
20896;SDS011;10608;42.600;23.398;2022-12-07T12:47:56;19.27;;;18.47;;
20896;SDS011;10608;42.600;23.398;2022-12-07T12:53:03;17.70;;;17.00;;
20896;SDS011;10608;42.600;23.398;2022-12-07T12:58:27;15.07;;;14.47;;
20896;SDS011;10608;42.600;23.398;2022-12-07T13:04:00;17.37;;;16.60;;
20896;SDS011;10608;42.600;23.398;2022-12-07T13:08:56;16.70;;;16.00;;
20896;SDS011;10608;42.600;23.398;2022-12-07T13:11:27;17.87;;;17.13;;
20896;SDS011;10608;42.600;23.398;2022-12-07T13:14:17;19.50;;;18.70;;
20896;SDS011;10608;42.600;23.398;2022-12-07T13:16:57;17.77;;;17.07;;
20896;SDS011;10608;42.600;23.398;2022-12-07T13:20:05;16.90;;;16.20;;
20896;SDS011;10608;42.600;23.398;2022-12-07T13:25:05;19.90;;;19.00;;
20896;SDS011;10608;42.600;23.398;2022-12-07T13:27:32;17.40;;;16.70;;
20896;SDS011;10608;42.600;23.398;2022-12-07T13:29:59;17.30;;;16.60;;
20896;SDS011;10608;42.600;23.398;2022-12-07T13:32:26;16.47;;;15.70;;
20896;SDS011;10608;42.600;23.398;2022-12-07T13:34:54;16.17;;;15.47;;
20896;SDS011;10608;42.600;23.398;2022-12-07T13:37:30;16.30;;;15.60;;
20896;SDS011;10608;42.600;23.398;2022-12-07T13:39:59;15.03;;;14.43;;
20896;SDS011;10608;42.600;23.398;2022-12-07T13:44:55;19.07;;;18.27;;
20896;SDS011;10608;42.600;23.398;2022-12-07T13:52:55;17.63;;;16.93;;
20896;SDS011;10608;42.600;23.398;2022-12-07T13:55:24;22.90;;;21.90;;
20896;SDS011;10608;42.600;23.398;2022-12-07T13:57:52;19.33;;;18.53;;
20896;SDS011;10608;42.600;23.398;2022-12-07T14:00:19;14.97;;;14.37;;
20896;SDS011;10608;42.600;23.398;2022-12-07T14:03:00;18.27;;;17.47;;
20896;SDS011;10608;42.600;23.398;2022-12-07T14:05:32;21.90;;;21.00;;
20896;SDS011;10608;42.600;23.398;2022-12-07T14:08:03;15.10;;;14.50;;
20896;SDS011;10608;42.600;23.398;2022-12-07T14:10:31;15.20;;;14.60;;
20896;SDS011;10608;42.600;23.398;2022-12-07T14:12:58;16.30;;;15.67;;
20896;SDS011;10608;42.600;23.398;2022-12-07T14:15:29;16.17;;;15.47;;
20896;SDS011;10608;42.600;23.398;2022-12-07T14:17:57;18.50;;;17.67;;
20896;SDS011;10608;42.600;23.398;2022-12-07T14:22:59;26.30;;;25.23;;
20896;SDS011;10608;42.600;23.398;2022-12-07T14:25:27;17.63;;;16.93;;
20896;SDS011;10608;42.600;23.398;2022-12-07T14:27:57;20.10;;;19.27;;
20896;SDS011;10608;42.600;23.398;2022-12-07T14:30:27;17.50;;;16.80;;
20896;SDS011;10608;42.600;23.398;2022-12-07T14:32:59;17.53;;;16.83;;
20896;SDS011;10608;42.600;23.398;2022-12-07T14:35:26;16.57;;;15.87;;
20896;SDS011;10608;42.600;23.398;2022-12-07T14:37:52;16.37;;;15.70;;
20896;SDS011;10608;42.600;23.398;2022-12-07T14:40:21;16.73;;;16.03;;
20896;SDS011;10608;42.600;23.398;2022-12-07T14:42:53;17.23;;;16.53;;
20896;SDS011;10608;42.600;23.398;2022-12-07T14:45:26;16.63;;;15.93;;
20896;SDS011;10608;42.600;23.398;2022-12-07T14:47:52;16.50;;;15.80;;
20896;SDS011;10608;42.600;23.398;2022-12-07T14:50:19;19.33;;;18.53;;
20896;SDS011;10608;42.600;23.398;2022-12-07T14:52:46;16.57;;;15.87;;
20896;SDS011;10608;42.600;23.398;2022-12-07T14:55:27;12.77;;;12.27;;
20896;SDS011;10608;42.600;23.398;2022-12-07T14:57:54;14.47;;;13.87;;
20896;SDS011;10608;42.600;23.398;2022-12-07T15:00:21;16.03;;;15.40;;
20896;SDS011;10608;42.600;23.398;2022-12-07T15:02:49;17.73;;;17.03;;
20896;SDS011;10608;42.600;23.398;2022-12-07T15:05:15;19.03;;;18.23;;
20896;SDS011;10608;42.600;23.398;2022-12-07T15:07:41;21.13;;;20.30;;
20896;SDS011;10608;42.600;23.398;2022-12-07T15:10:13;27.70;;;26.60;;
20896;SDS011;10608;42.600;23.398;2022-12-07T15:12:44;26.67;;;25.57;;
20896;SDS011;10608;42.600;23.398;2022-12-07T15:15:10;23.50;;;22.50;;
20896;SDS011;10608;42.600;23.398;2022-12-07T15:17:35;22.53;;;21.53;;
20896;SDS011;10608;42.600;23.398;2022-12-07T15:20:01;52.20;;;49.90;;
20896;SDS011;10608;42.600;23.398;2022-12-07T15:22:26;59.70;;;57.07;;
20896;SDS011;10608;42.600;23.398;2022-12-07T15:24:52;87.50;;;83.73;;
20896;SDS011;10608;42.600;23.398;2022-12-07T15:27:17;71.33;;;68.33;;
20896;SDS011;10608;42.600;23.398;2022-12-07T15:29:42;46.60;;;44.60;;
20896;SDS011;10608;42.600;23.398;2022-12-07T15:32:08;33.63;;;32.23;;
20896;SDS011;10608;42.600;23.398;2022-12-07T15:34:33;26.47;;;25.37;;
20896;SDS011;10608;42.600;23.398;2022-12-07T15:36:59;30.63;;;29.33;;
20896;SDS011;10608;42.600;23.398;2022-12-07T15:39:24;34.13;;;32.73;;
20896;SDS011;10608;42.600;23.398;2022-12-07T15:41:50;39.90;;;38.03;;
20896;SDS011;10608;42.600;23.398;2022-12-07T15:44:15;40.27;;;38.60;;
20896;SDS011;10608;42.600;23.398;2022-12-07T15:46:59;45.40;;;43.53;;
20896;SDS011;10608;42.600;23.398;2022-12-07T15:49:25;49.93;;;47.80;;
20896;SDS011;10608;42.600;23.398;2022-12-07T15:51:51;50.57;;;48.47;;
20896;SDS011;10608;42.600;23.398;2022-12-07T15:54:24;44.97;;;43.10;;
20896;SDS011;10608;42.600;23.398;2022-12-07T15:56:51;39.67;;;38.03;;
20896;SDS011;10608;42.600;23.398;2022-12-07T15:59:17;24.67;;;23.67;;
20896;SDS011;10608;42.600;23.398;2022-12-07T16:01:43;24.77;;;23.77;;
20896;SDS011;10608;42.600;23.398;2022-12-07T16:04:08;30.60;;;29.37;;
20896;SDS011;10608;42.600;23.398;2022-12-07T16:06:34;33.63;;;32.27;;
20896;SDS011;10608;42.600;23.398;2022-12-07T16:09:00;36.10;;;34.60;;
20896;SDS011;10608;42.600;23.398;2022-12-07T16:11:26;29.17;;;28.00;;